Time;durP1;ratioP1;P1;durP2;ratioP2;P2;SDS_P1;SDS_P2;PMS_P1;PMS_P2;Temp;Humidity;BMP_temperature;BMP_pressure;BME280_temperature;BME280_humidity;BME280_pressure;Samples;Min_cycle;Max_cycle;Signal;HPM_P1;HPM_P2
2021/11/28 00:02:22;;;;;;;36.53;20.02;;;;;;;3.84;100.00;95890.75;5108523;28;20083;-84
2021/11/28 00:04:50;;;;;;;36.90;19.80;;;;;;;3.82;100.00;95895.69;5105859;28;20052;-87
2021/11/28 00:15:01;;;;;;;39.75;21.40;;;;;;;3.65;100.00;95874.66;5092748;28;20051;-85
2021/11/28 00:17:26;;;;;;;44.72;22.33;;;;;;;3.71;100.00;95883.47;5096718;28;20317;-78
2021/11/28 00:19:52;;;;;;;38.05;20.08;;;;;;;3.74;100.00;95877.44;5093653;28;20046;-86
2021/11/28 00:22:18;;;;;;;43.65;21.58;;;;;;;3.81;100.00;95877.84;5091104;28;20051;-80
2021/11/28 00:24:43;;;;;;;39.72;20.80;;;;;;;3.91;100.00;95872.22;5090893;28;20028;-80
2021/11/28 00:27:09;;;;;;;33.45;19.35;;;;;;;3.86;100.00;95868.81;5093209;28;20126;-80
2021/11/28 00:29:36;;;;;;;36.33;18.73;;;;;;;3.79;100.00;95850.28;5099075;28;20005;-86
2021/11/28 00:32:01;;;;;;;32.03;18.48;;;;;;;3.79;100.00;95855.69;5102743;28;20028;-83
2021/11/28 00:34:27;;;;;;;31.50;17.25;;;;;;;3.78;100.00;95854.13;5112435;28;20030;-87
2021/11/28 00:36:53;;;;;;;31.67;18.42;;;;;;;3.76;100.00;95854.41;5116158;28;20031;-89
2021/11/28 00:39:19;;;;;;;31.67;18.42;;;;;;;3.73;100.00;95846.09;5115646;28;20442;-88
2021/11/28 00:41:44;;;;;;;32.20;18.67;;;;;;;3.74;100.00;95843.13;5114229;28;20053;-86
2021/11/28 00:44:10;;;;;;;32.85;19.55;;;;;;;3.75;100.00;95835.81;5112047;28;20095;-88
2021/11/28 00:46:36;;;;;;;35.47;19.60;;;;;;;3.72;100.00;95825.59;5110156;28;20028;-87
2021/11/28 00:49:03;;;;;;;35.65;18.25;;;;;;;3.69;100.00;95824.31;5113127;28;20020;-87
2021/11/28 00:52:03;;;;;;;38.97;19.35;;;;;;;3.71;100.00;95824.00;5103638;28;20108;-86
2021/11/28 00:54:24;;;;;;;31.38;18.25;;;;;;;3.73;100.00;95827.19;5108147;28;20036;-79
2021/11/28 00:56:50;;;;;;;38.28;19.50;;;;;;;3.74;100.00;95813.38;5111846;28;20016;-79
2021/11/28 00:59:15;;;;;;;36.90;19.25;;;;;;;3.78;100.00;95810.88;5118267;28;20014;-87
2021/11/28 01:01:41;;;;;;;42.03;19.33;;;;;;;3.85;100.00;95805.84;5112938;28;20115;-85
2021/11/28 01:04:07;;;;;;;34.33;19.38;;;;;;;3.85;100.00;95807.75;5092038;28;20021;-88
2021/11/28 01:06:32;;;;;;;33.80;18.52;;;;;;;3.88;100.00;95799.81;5085971;28;20021;-83
2021/11/28 01:08:58;;;;;;;34.20;18.55;;;;;;;3.93;100.00;95794.28;5100329;28;20029;-84
2021/11/28 01:11:24;;;;;;;32.08;18.25;;;;;;;3.94;100.00;95785.09;5097009;28;20052;-86
2021/11/28 01:13:51;;;;;;;31.42;17.90;;;;;;;3.94;100.00;95774.25;5095155;28;20063;-87
2021/11/28 01:16:16;;;;;;;29.95;17.73;;;;;;;3.93;100.00;95778.06;5095448;28;20026;-82
2021/11/28 01:18:43;;;;;;;28.77;17.42;;;;;;;3.84;100.00;95785.31;5093355;28;20048;-83
2021/11/28 01:21:08;;;;;;;28.60;16.83;;;;;;;3.79;100.00;95783.50;5094770;28;20032;-86
2021/11/28 01:23:34;;;;;;;31.58;18.05;;;;;;;3.81;100.00;95769.69;5093458;28;20103;-86
2021/11/28 01:26:00;;;;;;;33.90;18.25;;;;;;;3.92;100.00;95776.47;5086983;28;20543;-85
2021/11/28 01:28:26;;;;;;;28.27;17.27;;;;;;;3.90;100.00;95777.88;5093597;28;20115;-83
2021/11/28 01:30:52;;;;;;;28.23;16.27;;;;;;;3.90;100.00;95773.28;5097301;28;20020;-83
2021/11/28 01:33:17;;;;;;;29.50;16.88;;;;;;;3.95;100.00;95761.53;5115165;28;20016;-82
2021/11/28 01:35:43;;;;;;;30.67;17.40;;;;;;;3.96;100.00;95758.53;5116091;28;20297;-89
2021/11/28 01:38:08;;;;;;;34.45;17.65;;;;;;;3.99;100.00;95755.19;5109403;28;20028;-82
2021/11/28 01:40:34;;;;;;;29.83;17.83;;;;;;;3.90;100.00;95770.56;5113731;28;20093;-83
2021/11/28 01:43:14;;;;;;;39.10;20.60;;;;;;;3.81;100.00;95779.72;5103322;28;20039;-83
2021/11/28 01:45:40;;;;;;;33.22;19.75;;;;;;;3.90;100.00;95784.09;5111116;28;20036;-79
2021/11/28 01:48:09;;;;;;;33.70;19.25;;;;;;;3.93;100.00;95788.06;5104026;28;20024;-86
2021/11/28 01:50:36;;;;;;;37.28;20.63;;;;;;;3.97;100.00;95789.06;5101606;28;20138;-87
2021/11/28 01:53:04;;;;;;;33.95;20.65;;;;;;;3.95;100.00;95781.25;5101921;28;20024;-85
2021/11/28 01:55:32;;;;;;;33.88;19.05;;;;;;;4.00;100.00;95766.81;5104373;28;20103;-87
2021/11/28 01:57:59;;;;;;;39.53;22.27;;;;;;;3.92;100.00;95765.63;5107903;28;20028;-87
2021/11/28 02:00:29;;;;;;;38.05;21.83;;;;;;;3.93;100.00;95761.03;5107574;28;20116;-86
2021/11/28 02:02:57;;;;;;;36.85;19.38;;;;;;;3.94;100.00;95755.34;5101281;28;20459;-85
2021/11/28 02:05:23;;;;;;;33.20;19.52;;;;;;;3.91;100.00;95753.25;5101554;28;20024;-86
2021/11/28 02:07:50;;;;;;;33.83;20.33;;;;;;;3.84;100.00;95742.06;5100353;28;20044;-84
2021/11/28 02:10:16;;;;;;;34.90;20.52;;;;;;;3.83;100.00;95729.63;5100124;28;20028;-86
2021/11/28 02:12:46;;;;;;;36.45;21.25;;;;;;;3.74;100.00;95724.16;5100183;28;20027;-88
2021/11/28 02:15:13;;;;;;;34.42;19.65;;;;;;;3.84;100.00;95723.13;5101118;28;20067;-87
2021/11/28 02:17:38;;;;;;;37.28;22.30;;;;;;;3.87;100.00;95725.22;5100483;28;20024;-88
2021/11/28 02:20:06;;;;;;;38.78;21.13;;;;;;;3.92;100.00;95716.97;5103018;28;20103;-85
2021/11/28 02:22:33;;;;;;;34.85;19.30;;;;;;;3.96;100.00;95712.56;5102727;28;20027;-88
2021/11/28 02:25:03;;;;;;;37.22;21.75;;;;;;;4.00;100.00;95700.00;5102559;28;20043;-87
2021/11/28 02:27:28;;;;;;;35.38;20.83;;;;;;;3.99;100.00;95693.00;5105151;28;20027;-86
2021/11/28 02:29:54;;;;;;;37.72;20.90;;;;;;;3.94;100.00;95684.22;5106032;28;20032;-87
2021/11/28 02:32:20;;;;;;;41.20;21.65;;;;;;;4.07;100.00;95670.59;5108082;28;20028;-84
2021/11/28 02:34:45;;;;;;;39.75;22.15;;;;;;;4.03;100.00;95663.44;5104591;28;20469;-83
2021/11/28 02:37:10;;;;;;;40.05;22.25;;;;;;;4.05;100.00;95662.00;5104096;28;21017;-84
2021/11/28 02:39:36;;;;;;;39.47;21.42;;;;;;;4.11;100.00;95660.78;5107522;28;20082;-86
2021/11/28 02:42:03;;;;;;;41.13;22.70;;;;;;;4.16;100.00;95663.34;5111203;28;20028;-83
2021/11/28 02:44:30;;;;;;;37.50;21.98;;;;;;;4.06;100.00;95671.72;5104572;28;20079;-88
2021/11/28 02:46:56;;;;;;;32.53;20.70;;;;;;;4.10;100.00;95675.38;5103938;28;20085;-86
2021/11/28 02:49:22;;;;;;;43.40;22.30;;;;;;;4.03;100.00;95677.75;5104415;28;20028;-88
2021/11/28 02:51:48;;;;;;;34.85;20.98;;;;;;;4.04;100.00;95670.44;5105838;28;20032;-90
2021/11/28 02:54:14;;;;;;;36.83;22.15;;;;;;;4.07;100.00;95667.91;5104101;28;20048;-88
2021/11/28 02:56:43;;;;;;;41.28;22.58;;;;;;;4.07;100.00;95665.19;5103014;28;20036;-83
2021/11/28 02:59:09;;;;;;;32.08;19.38;;;;;;;3.94;100.00;95659.88;5102749;28;20032;-87
2021/11/28 03:01:36;;;;;;;30.98;18.55;;;;;;;3.91;100.00;95660.50;5102962;28;20497;-90
2021/11/28 03:04:02;;;;;;;32.85;19.02;;;;;;;3.89;100.00;95668.13;5105585;28;20080;-83
2021/11/28 03:06:27;;;;;;;39.13;21.20;;;;;;;3.93;100.00;95664.50;5104428;28;20099;-87
2021/11/28 03:08:53;;;;;;;37.15;21.75;;;;;;;4.02;100.00;95662.63;5108957;28;20035;-83
2021/11/28 03:11:19;;;;;;;38.83;21.20;;;;;;;3.97;100.00;95670.88;5111566;28;20016;-87
2021/11/28 03:13:48;;;;;;;35.83;21.98;;;;;;;3.91;100.00;95666.72;5113201;28;20012;-88
2021/11/28 03:16:21;;;;;;;35.20;20.20;;;;;;;3.84;100.00;95679.88;5114687;28;20096;-84
2021/11/28 03:18:49;;;;;;;36.40;21.42;;;;;;;3.86;100.00;95672.25;5113695;28;20035;-87
2021/11/28 03:21:21;;;;;;;42.30;22.02;;;;;;;3.91;100.00;95664.03;5108165;28;20020;-88
2021/11/28 03:23:48;;;;;;;33.95;19.50;;;;;;;3.85;100.00;95661.75;5111553;28;20008;-85
2021/11/28 03:26:24;;;;;;;38.47;21.23;;;;;;;3.84;100.00;95660.94;5111975;28;20051;-83
2021/11/28 03:28:56;;;;;;;35.97;19.83;;;;;;;3.87;100.00;95660.31;5115755;28;20028;-79
2021/11/28 03:31:24;;;;;;;33.33;20.48;;;;;;;3.93;100.00;95669.91;5112933;28;20039;-88
2021/11/28 03:33:50;;;;;;;30.63;17.88;;;;;;;4.01;100.00;95671.84;5112480;28;20016;-85
2021/11/28 03:36:19;;;;;;;28.80;16.70;;;;;;;4.08;100.00;95685.72;5114559;28;20040;-88
2021/11/28 03:38:45;;;;;;;29.58;16.63;;;;;;;4.05;100.00;95693.66;5114796;28;20055;-89
2021/11/28 03:41:11;;;;;;;22.00;13.20;;;;;;;4.13;100.00;95688.31;5113187;28;20028;-89
2021/11/28 03:43:38;;;;;;;21.92;13.00;;;;;;;4.10;100.00;95688.91;5112342;28;20004;-90
2021/11/28 03:46:04;;;;;;;19.77;12.00;;;;;;;4.08;100.00;95699.25;5111001;28;19996;-88
2021/11/28 03:48:29;;;;;;;17.45;10.70;;;;;;;4.05;100.00;95704.47;5112447;28;20024;-87
2021/11/28 03:50:55;;;;;;;13.60;9.27;;;;;;;4.03;100.00;95701.31;5111106;28;20028;-85
2021/11/28 03:53:20;;;;;;;12.73;7.30;;;;;;;4.01;100.00;95704.28;5112183;28;20028;-84
2021/11/28 03:55:47;;;;;;;10.80;6.75;;;;;;;3.93;100.00;95707.75;5109075;28;20028;-83
2021/11/28 03:58:12;;;;;;;9.45;6.22;;;;;;;3.81;100.00;95694.00;5112440;28;20051;-83
2021/11/28 04:00:38;;;;;;;10.70;6.15;;;;;;;3.67;100.00;95699.47;5108075;28;20032;-76
2021/11/28 04:03:04;;;;;;;11.57;7.05;;;;;;;3.67;100.00;95698.66;5106676;28;20036;-88
2021/11/28 04:05:30;;;;;;;12.35;7.88;;;;;;;3.57;100.00;95690.81;5105673;28;20028;-86
2021/11/28 04:07:55;;;;;;;11.65;7.82;;;;;;;3.35;100.00;95701.59;5107206;28;20574;-86
2021/11/28 04:10:21;;;;;;;15.07;9.00;;;;;;;3.16;100.00;95689.03;5106610;28;20024;-86
2021/11/28 04:12:47;;;;;;;13.80;9.18;;;;;;;3.04;100.00;95686.06;5109980;28;20040;-82
2021/11/28 04:15:12;;;;;;;15.07;10.00;;;;;;;3.05;100.00;95693.06;5112672;28;20104;-87
2021/11/28 04:17:38;;;;;;;16.33;10.77;;;;;;;3.13;100.00;95689.63;5111906;28;20092;-83
2021/11/28 04:20:06;;;;;;;13.70;9.00;;;;;;;3.08;100.00;95681.66;5109679;28;20043;-83
2021/11/28 04:22:31;;;;;;;12.02;8.10;;;;;;;2.96;100.00;95648.19;5107238;28;20023;-85
2021/11/28 04:24:57;;;;;;;12.68;8.10;;;;;;;2.95;100.00;95655.47;5101380;28;20040;-86
2021/11/28 04:27:22;;;;;;;13.25;8.32;;;;;;;2.98;100.00;95662.16;5096155;28;20028;-85
2021/11/28 04:29:48;;;;;;;13.38;8.82;;;;;;;2.95;100.00;95663.59;5102616;28;20024;-85
2021/11/28 04:32:14;;;;;;;12.65;8.57;;;;;;;3.02;100.00;95655.88;5098911;28;20032;-87
2021/11/28 04:34:39;;;;;;;14.90;8.80;;;;;;;3.09;100.00;95650.88;5112633;28;20051;-80
2021/11/28 04:37:05;;;;;;;12.95;8.43;;;;;;;3.20;100.00;95662.22;5112580;28;20020;-86
2021/11/28 04:39:30;;;;;;;11.05;7.82;;;;;;;3.23;100.00;95646.19;5106083;28;20034;-85
2021/11/28 04:41:56;;;;;;;11.85;7.75;;;;;;;3.27;100.00;95648.28;5104451;28;20373;-88
2021/11/28 04:44:23;;;;;;;12.82;8.43;;;;;;;3.24;100.00;95658.63;5105462;28;20031;-86
2021/11/28 04:46:49;;;;;;;13.88;8.13;;;;;;;3.35;100.00;95629.47;5105701;28;20028;-87
2021/11/28 04:49:15;;;;;;;10.88;7.13;;;;;;;3.34;100.00;95602.75;5105400;28;20024;-83
2021/11/28 04:51:40;;;;;;;11.98;8.48;;;;;;;3.32;100.00;95616.53;5107875;28;20024;-83
2021/11/28 04:54:07;;;;;;;14.05;7.68;;;;;;;3.35;100.00;95615.16;5109557;28;20116;-83
2021/11/28 04:56:32;;;;;;;13.98;8.02;;;;;;;3.43;100.00;95630.63;5109173;28;20028;-87
2021/11/28 04:58:58;;;;;;;11.98;8.18;;;;;;;3.55;100.00;95625.44;5108103;28;20123;-87
2021/11/28 05:01:24;;;;;;;14.40;7.43;;;;;;;3.56;100.00;95627.88;5109494;28;20028;-90
2021/11/28 05:03:50;;;;;;;10.85;7.28;;;;;;;3.43;100.00;95622.50;5107020;28;20048;-87
2021/11/28 05:06:17;;;;;;;11.30;7.30;;;;;;;3.47;100.00;95620.81;5107045;28;20058;-88
2021/11/28 05:08:42;;;;;;;10.52;7.00;;;;;;;3.46;100.00;95597.59;5108961;28;20037;-88
2021/11/28 05:11:08;;;;;;;10.63;6.88;;;;;;;3.37;100.00;95583.22;5102112;28;20021;-85
2021/11/28 05:13:33;;;;;;;9.70;6.38;;;;;;;3.38;100.00;95584.81;5107937;28;20025;-82
2021/11/28 05:15:58;;;;;;;7.75;5.93;;;;;;;3.31;100.00;95577.16;5107374;28;20031;-86
2021/11/28 05:18:24;;;;;;;9.75;6.35;;;;;;;3.40;100.00;95563.69;5109601;28;20033;-88
2021/11/28 05:20:49;;;;;;;11.63;6.97;;;;;;;3.45;100.00;95558.16;5108735;28;20104;-87
2021/11/28 05:23:16;;;;;;;10.27;6.00;;;;;;;3.58;100.00;95571.59;5109747;28;20031;-85
2021/11/28 05:25:42;;;;;;;8.23;5.22;;;;;;;3.54;100.00;95564.44;5111079;28;20103;-85
2021/11/28 05:28:09;;;;;;;10.25;5.70;;;;;;;3.49;100.00;95564.53;5111865;28;20028;-89
2021/11/28 05:30:38;;;;;;;6.78;4.65;;;;;;;3.45;100.00;95555.44;5111426;28;20117;-87
2021/11/28 05:33:03;;;;;;;8.10;4.50;;;;;;;3.41;100.00;95570.69;5113343;28;20048;-87
2021/11/28 05:35:29;;;;;;;7.72;4.70;;;;;;;3.41;100.00;95566.09;5114078;28;20035;-84
2021/11/28 05:37:54;;;;;;;8.40;4.60;;;;;;;3.49;100.00;95576.16;5112868;28;20027;-84
2021/11/28 05:40:20;;;;;;;6.57;4.38;;;;;;;3.56;100.00;95573.00;5110983;28;20032;-87
2021/11/28 05:42:51;;;;;;;7.40;4.65;;;;;;;3.55;100.00;95576.81;5109522;28;20660;-87
2021/11/28 05:45:19;;;;;;;7.47;4.82;;;;;;;3.56;100.00;95583.81;5108793;28;20043;-89
2021/11/28 05:47:44;;;;;;;7.82;4.90;;;;;;;3.64;100.00;95588.47;5111540;28;20035;-88
2021/11/28 05:50:10;;;;;;;7.18;4.93;;;;;;;3.66;100.00;95584.38;5116186;28;20024;-88
2021/11/28 05:52:37;;;;;;;10.57;5.22;;;;;;;3.64;100.00;95585.75;5112428;28;20028;-88
2021/11/28 05:55:04;;;;;;;9.10;5.20;;;;;;;3.56;100.00;95583.81;5112838;28;20127;-87
2021/11/28 05:57:30;;;;;;;9.95;4.57;;;;;;;3.62;100.00;95580.69;5112115;28;20031;-85
2021/11/28 05:59:56;;;;;;;6.50;3.95;;;;;;;3.52;100.00;95596.34;5107328;28;20028;-83
2021/11/28 06:02:21;;;;;;;5.82;4.25;;;;;;;3.58;100.00;95598.63;5105828;28;20144;-88
2021/11/28 06:04:47;;;;;;;6.47;4.07;;;;;;;3.60;100.00;95595.63;5101377;28;21308;-90
2021/11/28 06:07:12;;;;;;;6.38;4.50;;;;;;;3.67;100.00;95599.47;5100304;28;20031;-87
2021/11/28 06:09:37;;;;;;;7.85;4.55;;;;;;;3.67;100.00;95585.13;5099240;28;20545;-83
2021/11/28 06:12:03;;;;;;;9.77;5.85;;;;;;;3.59;100.00;95573.19;5101606;28;20036;-86
2021/11/28 06:14:29;;;;;;;9.30;5.75;;;;;;;3.54;100.00;95575.25;5104708;28;20028;-87
2021/11/28 06:16:54;;;;;;;7.10;4.57;;;;;;;3.56;100.00;95573.00;5105767;28;20019;-86
2021/11/28 06:19:20;;;;;;;7.15;4.30;;;;;;;3.63;100.00;95565.28;5105696;28;20040;-84
2021/11/28 06:21:45;;;;;;;7.97;4.60;;;;;;;3.63;100.00;95571.44;5104565;28;20496;-87
2021/11/28 06:24:11;;;;;;;7.95;4.45;;;;;;;3.67;100.00;95583.25;5104840;28;20059;-88
2021/11/28 06:26:36;;;;;;;7.30;4.50;;;;;;;3.69;100.00;95566.72;5105814;28;20050;-87
2021/11/28 06:29:02;;;;;;;17.35;10.75;;;;;;;3.58;100.00;95562.69;5109255;28;20028;-83
2021/11/28 06:31:27;;;;;;;7.90;4.68;;;;;;;3.52;100.00;95572.81;5107467;28;20032;-86
2021/11/28 06:33:52;;;;;;;10.05;5.53;;;;;;;3.66;100.00;95570.06;5102933;28;20031;-87
2021/11/28 06:36:18;;;;;;;11.30;7.30;;;;;;;3.82;100.00;95576.66;5099601;28;20047;-82
2021/11/28 06:38:44;;;;;;;11.45;5.72;;;;;;;3.93;100.00;95585.28;5101850;28;20028;-81
2021/11/28 06:41:09;;;;;;;8.98;5.53;;;;;;;3.88;100.00;95586.22;5101040;28;20024;-79
2021/11/28 06:43:35;;;;;;;10.27;6.43;;;;;;;3.79;100.00;95578.06;5100370;28;20053;-86
2021/11/28 06:46:02;;;;;;;7.82;4.85;;;;;;;3.80;100.00;95589.66;5099059;28;20036;-87
2021/11/28 06:48:27;;;;;;;7.80;5.70;;;;;;;3.80;100.00;95586.97;5100041;28;20040;-89
2021/11/28 06:50:53;;;;;;;7.60;5.07;;;;;;;3.70;100.00;95616.97;5103825;28;20111;-85
2021/11/28 06:53:19;;;;;;;9.63;5.88;;;;;;;3.67;100.00;95617.56;5103074;28;20024;-87
2021/11/28 06:55:44;;;;;;;9.07;5.78;;;;;;;3.82;100.00;95614.50;5103966;28;20021;-83
2021/11/28 06:58:10;;;;;;;9.30;6.30;;;;;;;3.84;100.00;95617.69;5103110;28;20495;-91
2021/11/28 07:00:36;;;;;;;8.93;5.75;;;;;;;4.05;100.00;95653.91;5102206;28;20039;-88
2021/11/28 07:03:01;;;;;;;8.38;5.13;;;;;;;4.02;100.00;95657.22;5100907;28;20406;-89
2021/11/28 07:05:27;;;;;;;8.73;5.43;;;;;;;4.06;100.00;95652.81;5102509;28;20028;-86
2021/11/28 07:07:52;;;;;;;8.35;5.13;;;;;;;4.05;100.00;95650.38;5094547;28;20024;-86
2021/11/28 07:10:18;;;;;;;8.90;4.63;;;;;;;4.04;100.00;95651.53;5093151;28;20083;-83
2021/11/28 07:12:45;;;;;;;8.80;5.05;;;;;;;4.06;100.00;95652.81;5088600;28;20029;-85
2021/11/28 07:15:11;;;;;;;7.28;4.05;;;;;;;4.16;100.00;95636.31;5081855;28;20036;-87
2021/11/28 07:17:37;;;;;;;10.13;5.43;;;;;;;3.99;100.00;95635.41;5083155;28;20025;-87
2021/11/28 07:20:05;;;;;;;7.57;5.47;;;;;;;3.93;100.00;95647.47;5086455;28;20033;-84
2021/11/28 07:22:30;;;;;;;12.23;7.18;;;;;;;3.88;100.00;95661.94;5084763;28;20028;-85
2021/11/28 07:24:56;;;;;;;9.50;6.22;;;;;;;3.88;100.00;95661.13;5076729;28;20025;-76
2021/11/28 07:27:22;;;;;;;9.90;5.70;;;;;;;3.76;100.00;95662.47;5071100;28;20035;-76
2021/11/28 07:29:48;;;;;;;10.35;6.43;;;;;;;3.68;100.00;95689.47;5081732;28;20400;-80
2021/11/28 07:32:13;;;;;;;11.52;7.32;;;;;;;3.67;100.00;95691.34;5090766;28;20024;-77
2021/11/28 07:34:38;;;;;;;10.52;7.15;;;;;;;3.59;100.00;95677.78;5099122;28;20050;-81
2021/11/28 07:37:04;;;;;;;10.07;6.95;;;;;;;3.61;100.00;95667.47;5092321;28;20023;-78
2021/11/28 07:39:29;;;;;;;13.93;7.43;;;;;;;3.55;100.00;95668.69;5091299;28;20093;-85
2021/11/28 07:41:55;;;;;;;12.90;6.95;;;;;;;3.50;100.00;95656.13;5091497;28;20032;-79
2021/11/28 07:44:20;;;;;;;11.48;6.07;;;;;;;3.43;100.00;95649.53;5089260;28;20020;-78
2021/11/28 07:46:46;;;;;;;11.07;6.07;;;;;;;3.49;100.00;95661.81;5091261;28;20016;-78
2021/11/28 07:49:11;;;;;;;11.40;6.22;;;;;;;3.49;100.00;95669.91;5090825;28;20055;-85
2021/11/28 07:51:36;;;;;;;11.20;6.22;;;;;;;3.44;100.00;95667.34;5093371;28;20026;-78
2021/11/28 07:54:02;;;;;;;8.40;6.15;;;;;;;3.36;100.00;95668.88;5093823;28;20097;-84
2021/11/28 07:56:28;;;;;;;8.43;5.30;;;;;;;3.51;100.00;95679.31;5095091;28;20074;-78
2021/11/28 07:58:54;;;;;;;7.78;5.65;;;;;;;3.47;100.00;95699.97;5091801;28;20046;-85
2021/11/28 08:01:19;;;;;;;8.95;5.35;;;;;;;3.67;100.00;95687.84;5091873;28;20016;-81
2021/11/28 08:03:44;;;;;;;8.10;5.50;;;;;;;3.68;100.00;95673.25;5093759;28;20039;-79
2021/11/28 08:06:10;;;;;;;8.80;5.43;;;;;;;3.64;100.00;95680.34;5093461;28;20056;-77
2021/11/28 08:08:37;;;;;;;9.40;6.00;;;;;;;3.69;100.00;95672.16;5097390;28;20024;-85
2021/11/28 08:11:02;;;;;;;12.93;9.05;;;;;;;3.50;100.00;95671.53;5091745;28;20029;-85
2021/11/28 08:13:31;;;;;;;10.13;6.32;;;;;;;3.42;100.00;95680.34;5097101;28;20757;-87
2021/11/28 08:15:56;;;;;;;9.77;6.20;;;;;;;3.42;100.00;95688.44;5092697;28;20028;-77
2021/11/28 08:18:22;;;;;;;11.60;6.72;;;;;;;3.53;100.00;95692.53;5100996;28;20031;-82
2021/11/28 08:20:48;;;;;;;8.77;6.07;;;;;;;3.64;100.00;95694.69;5101501;28;20024;-81
2021/11/28 08:23:13;;;;;;;10.88;6.32;;;;;;;3.70;100.00;95700.75;5103109;28;20520;-84
2021/11/28 08:25:38;;;;;;;8.70;6.05;;;;;;;3.77;100.00;95704.63;5106174;28;20072;-83
2021/11/28 08:28:08;;;;;;;9.65;5.93;;;;;;;3.78;100.00;95713.53;5103002;28;20024;-86
2021/11/28 08:30:36;;;;;;;10.05;6.68;;;;;;;3.93;100.00;95726.69;5099761;28;20041;-82
2021/11/28 08:33:03;;;;;;;9.88;6.53;;;;;;;3.83;100.00;95718.81;5092187;28;20093;-88
2021/11/28 08:35:29;;;;;;;7.85;4.90;;;;;;;3.81;100.00;95714.81;5117142;28;20030;-84
2021/11/28 08:37:57;;;;;;;8.15;4.90;;;;;;;3.76;100.00;95719.25;5095281;28;20026;-83
2021/11/28 08:40:22;;;;;;;7.75;4.80;;;;;;;3.82;100.00;95741.56;5105770;28;20046;-80
2021/11/28 08:42:48;;;;;;;9.40;5.72;;;;;;;3.84;100.00;95747.47;5103046;28;20092;-82
2021/11/28 08:45:15;;;;;;;14.40;5.55;;;;;;;3.88;100.00;95728.72;5101986;28;20036;-82
2021/11/28 08:47:42;;;;;;;7.90;4.50;;;;;;;3.87;100.00;95724.41;5103302;28;20389;-83
2021/11/28 08:50:08;;;;;;;7.45;4.88;;;;;;;3.75;100.00;95743.91;5096868;28;20043;-75
2021/11/28 08:52:34;;;;;;;11.52;5.88;;;;;;;3.68;100.00;95727.31;5094019;28;20062;-78
2021/11/28 08:55:00;;;;;;;12.32;7.90;;;;;;;3.55;100.00;95720.84;5097404;28;20048;-81
2021/11/28 08:57:26;;;;;;;13.45;7.38;;;;;;;3.57;100.00;95721.31;5101349;28;20019;-78
2021/11/28 08:59:51;;;;;;;11.48;7.45;;;;;;;3.64;100.00;95710.88;5100318;28;20181;-77
2021/11/28 09:02:17;;;;;;;11.15;6.63;;;;;;;3.51;100.00;95694.75;5100605;28;20066;-77
2021/11/28 09:04:44;;;;;;;12.27;7.00;;;;;;;3.45;100.00;95717.56;5101792;28;20476;-81
2021/11/28 09:07:10;;;;;;;11.70;6.78;;;;;;;3.58;100.00;95724.81;5101936;28;20062;-81
2021/11/28 09:09:35;;;;;;;13.10;6.85;;;;;;;3.61;100.00;95726.91;5101870;28;20059;-77
2021/11/28 09:12:02;;;;;;;9.05;5.68;;;;;;;3.69;100.00;95699.19;5099922;28;20019;-83
2021/11/28 09:14:28;;;;;;;10.30;5.82;;;;;;;3.62;100.00;95710.41;5098896;28;20032;-76
2021/11/28 09:16:53;;;;;;;11.82;6.05;;;;;;;3.72;100.00;95710.16;5108119;27;20090;-76
2021/11/28 09:19:39;;;;;;;12.68;5.93;;;;;;;3.76;100.00;95702.22;5106439;28;20028;-76
2021/11/28 09:22:06;;;;;;;11.05;5.43;;;;;;;3.74;100.00;95705.25;5099077;28;20399;-75
2021/11/28 09:24:38;;;;;;;9.82;6.25;;;;;;;3.79;100.00;95709.72;5098394;28;20036;-74
2021/11/28 09:27:14;;;;;;;10.77;6.30;;;;;;;3.85;100.00;95705.81;5098073;28;20035;-78
2021/11/28 09:29:45;;;;;;;8.23;5.50;;;;;;;3.83;100.00;95701.78;5097963;28;20066;-74
2021/11/28 09:32:15;;;;;;;9.70;6.40;;;;;;;3.92;100.00;95697.25;5097116;28;20026;-74
2021/11/28 09:34:41;;;;;;;10.90;6.97;;;;;;;4.04;100.00;95714.50;5096796;28;20472;-74
2021/11/28 09:37:08;;;;;;;10.93;6.53;;;;;;;4.06;100.00;95706.91;5096919;28;20491;-76
2021/11/28 09:39:34;;;;;;;10.93;6.50;;;;;;;4.09;100.00;95708.19;5094960;28;20020;-76
2021/11/28 09:42:06;;;;;;;12.60;7.15;;;;;;;4.09;100.00;95719.78;5096770;28;20030;-76
2021/11/28 09:44:35;;;;;;;10.20;6.32;;;;;;;4.17;100.00;95718.22;5097369;28;20028;-77
2021/11/28 09:47:03;;;;;;;11.27;6.53;;;;;;;4.07;100.00;95716.59;5097506;28;20119;-76
2021/11/28 09:49:29;;;;;;;8.57;6.05;;;;;;;4.00;100.00;95732.47;5096714;28;20031;-75
2021/11/28 09:51:56;;;;;;;9.50;6.20;;;;;;;4.06;100.00;95717.72;5097670;28;20076;-76
2021/11/28 09:54:23;;;;;;;9.18;6.07;;;;;;;4.04;100.00;95702.91;5097098;28;20530;-76
2021/11/28 09:56:49;;;;;;;10.48;6.25;;;;;;;4.10;100.00;95707.84;5097374;28;20189;-78
2021/11/28 09:59:15;;;;;;;12.15;6.47;;;;;;;4.06;100.00;95695.28;5095172;28;20042;-75
2021/11/28 10:01:43;;;;;;;10.23;6.95;;;;;;;4.04;100.00;95698.28;5094677;28;20035;-75
2021/11/28 10:04:09;;;;;;;14.45;7.25;;;;;;;4.05;100.00;95697.16;5096078;28;20425;-75
2021/11/28 10:06:35;;;;;;;15.50;7.60;;;;;;;4.06;100.00;95701.47;5095015;28;20092;-76
2021/11/28 10:09:04;;;;;;;11.43;7.22;;;;;;;4.14;100.00;95700.72;5097166;28;20032;-76
2021/11/28 10:11:39;;;;;;;12.35;7.97;;;;;;;4.04;100.00;95678.56;5095977;28;20776;-76
2021/11/28 10:14:05;;;;;;;13.05;8.75;;;;;;;3.94;100.00;95693.16;5101396;28;20488;-75
2021/11/28 10:16:30;;;;;;;13.10;8.07;;;;;;;4.00;100.00;95672.97;5105593;28;20043;-76
2021/11/28 10:18:56;;;;;;;13.35;8.60;;;;;;;4.05;100.00;95667.41;5096809;28;20481;-75
2021/11/28 10:21:21;;;;;;;18.67;8.77;;;;;;;4.00;100.00;95683.78;5098063;28;20402;-75
2021/11/28 10:24:14;;;;;;;11.93;7.70;;;;;;;3.96;100.00;95685.50;5097488;28;20414;-77
2021/11/28 10:27:05;;;;;;;14.50;9.65;;;;;;;3.99;100.00;95668.66;5096684;28;20024;-76
2021/11/28 10:29:36;;;;;;;13.35;8.32;;;;;;;4.02;100.00;95678.06;5097778;28;20503;-82
2021/11/28 10:32:04;;;;;;;12.40;8.40;;;;;;;4.02;100.00;95689.69;5094892;28;20491;-77
2021/11/28 10:34:31;;;;;;;16.50;9.13;;;;;;;3.91;100.00;95690.25;5096414;28;20070;-75
2021/11/28 10:37:14;;;;;;;16.27;10.23;;;;;;;4.34;100.00;95707.53;5097582;28;20039;-77
2021/11/28 10:39:43;;;;;;;15.40;9.52;;;;;;;4.81;100.00;95711.38;5097592;28;20397;-79
2021/11/28 10:42:16;;;;;;;12.93;8.02;;;;;;;4.88;100.00;95719.84;5098074;28;20016;-76
2021/11/28 10:45:00;;;;;;;12.25;8.32;;;;;;;4.49;100.00;95698.19;5100628;28;20080;-82
2021/11/28 10:47:38;;;;;;;14.18;8.48;;;;;;;4.20;100.00;95691.38;5095192;28;20036;-76
2021/11/28 10:50:07;;;;;;;14.38;9.43;;;;;;;4.08;100.00;95695.75;5099700;28;20024;-75
2021/11/28 10:52:33;;;;;;;14.15;9.05;;;;;;;4.13;100.00;95684.81;5097816;28;20036;-75
2021/11/28 10:55:09;;;;;;;16.38;9.52;;;;;;;3.97;100.00;95675.50;5100977;28;20054;-81
2021/11/28 10:57:34;;;;;;;12.48;8.65;;;;;;;4.00;100.00;95697.31;5102357;28;20038;-74
2021/11/28 11:00:01;;;;;;;13.43;8.20;;;;;;;3.94;100.00;95693.16;5095143;28;20024;-75
2021/11/28 11:02:39;;;;;;;13.85;8.60;;;;;;;3.90;100.00;95697.56;5094698;28;20027;-75
2021/11/28 11:05:09;;;;;;;19.63;11.68;;;;;;;3.96;100.00;95700.94;5095944;28;20031;-75
2021/11/28 11:07:48;;;;;;;13.02;8.48;;;;;;;3.97;100.00;95687.13;5095701;28;20138;-74
2021/11/28 11:10:33;;;;;;;14.98;10.10;;;;;;;3.92;100.00;95681.00;5095644;28;20040;-75
2021/11/28 11:12:59;;;;;;;15.88;9.57;;;;;;;3.93;100.00;95671.81;5096542;28;20039;-77
2021/11/28 11:15:46;;;;;;;11.57;7.88;;;;;;;3.86;100.00;95671.44;5097037;28;20035;-77
2021/11/28 11:18:15;;;;;;;12.15;7.22;;;;;;;3.89;100.00;95670.81;5095463;28;20059;-76
2021/11/28 11:20:44;;;;;;;12.82;7.95;;;;;;;3.81;100.00;95675.09;5096079;28;20039;-75
2021/11/28 11:23:34;;;;;;;14.45;8.75;;;;;;;3.89;100.00;95679.72;5095651;28;20027;-75
2021/11/28 11:26:20;;;;;;;17.45;8.63;;;;;;;3.93;100.00;95674.50;5093849;28;20542;-75
2021/11/28 11:29:06;;;;;;;14.77;9.00;;;;;;;3.93;100.00;95688.03;5096596;28;20038;-76
2021/11/28 11:31:31;;;;;;;13.63;8.68;;;;;;;3.83;100.00;95690.97;5096173;28;20035;-78
2021/11/28 11:33:58;;;;;;;11.85;8.10;;;;;;;3.94;100.00;95689.63;5095360;28;20040;-78